createdAt,value
2023-03-27T05:00:28.975Z,960.52
2023-03-27T05:01:31.846Z,960.58
2023-03-27T05:02:30.074Z,960.61
2023-03-27T05:03:30.221Z,960.65
2023-03-27T05:04:30.194Z,960.65
2023-03-27T05:05:30.274Z,960.68
2023-03-27T05:06:30.312Z,960.69
2023-03-27T05:07:30.381Z,960.71
2023-03-27T05:08:30.445Z,960.73
2023-03-27T05:09:30.544Z,960.75
2023-03-27T05:10:30.613Z,960.79
2023-03-27T05:11:30.652Z,960.80
2023-03-27T05:12:30.706Z,960.82
2023-03-27T05:13:30.811Z,960.82
2023-03-27T05:14:30.832Z,960.83
2023-03-27T05:15:30.926Z,960.87
2023-03-27T05:16:30.930Z,960.87
2023-03-27T05:17:31.030Z,960.91
2023-03-27T05:18:31.046Z,960.93
2023-03-27T05:19:31.117Z,960.97
2023-03-27T05:20:31.206Z,961.04
2023-03-27T05:21:31.212Z,961.09
2023-03-27T05:22:31.325Z,961.13
2023-03-27T05:23:31.411Z,961.19
2023-03-27T05:24:31.470Z,961.21
2023-03-27T05:25:31.593Z,961.25
2023-03-27T05:26:31.599Z,961.26
2023-03-27T05:27:31.679Z,961.24
2023-03-27T05:28:31.734Z,961.30
2023-03-27T05:29:47.366Z,961.33
2023-03-27T05:30:31.958Z,961.36
2023-03-27T05:31:31.959Z,961.39
2023-03-27T05:32:32.045Z,961.38
2023-03-27T05:33:32.248Z,961.43
2023-03-27T05:34:32.179Z,961.44
2023-03-27T05:35:32.310Z,961.42
2023-03-27T05:36:32.322Z,961.46
2023-03-27T05:37:32.388Z,961.51
2023-03-27T05:38:32.460Z,961.51
2023-03-27T05:39:32.536Z,961.54
2023-03-27T05:40:32.648Z,961.59
2023-03-27T05:41:32.664Z,961.60
2023-03-27T05:42:32.738Z,961.66
2023-03-27T05:43:32.805Z,961.69
2023-03-27T05:44:32.904Z,961.70
2023-03-27T05:45:32.953Z,961.73
2023-03-27T05:46:33.004Z,961.75
2023-03-27T05:47:33.056Z,961.77
2023-03-27T05:48:33.112Z,961.80
2023-03-27T05:49:34.142Z,961.84
2023-03-27T05:50:33.288Z,961.89
2023-03-27T05:51:33.321Z,961.93
2023-03-27T05:52:33.394Z,961.96
2023-03-27T05:53:33.464Z,962.00
2023-03-27T05:56:20.434Z,962.03
2023-03-27T05:57:21.459Z,962.07
2023-03-27T05:58:21.506Z,962.09
2023-03-27T05:59:21.585Z,962.10
2023-03-27T06:00:21.645Z,962.14
2023-03-27T06:01:21.783Z,962.16
2023-03-27T06:02:21.878Z,962.18
2023-03-27T06:03:21.935Z,962.18
2023-03-27T06:04:21.863Z,962.22
2023-03-27T06:05:21.948Z,962.21
2023-03-27T06:06:22.050Z,962.25
2023-03-27T06:07:22.061Z,962.25
2023-03-27T06:08:22.131Z,962.28
2023-03-27T06:09:22.190Z,962.28
2023-03-27T06:10:22.250Z,962.29
2023-03-27T06:11:22.347Z,962.30
2023-03-27T06:12:22.383Z,962.34
2023-03-27T06:13:22.445Z,962.38
2023-03-27T06:14:22.511Z,962.40
2023-03-27T06:15:22.573Z,962.41
2023-03-27T06:16:22.761Z,962.41
2023-03-27T06:17:22.695Z,962.46
2023-03-27T06:18:22.768Z,962.48
2023-03-27T06:19:22.816Z,962.49
2023-03-27T06:20:22.875Z,962.55
2023-03-27T06:21:22.958Z,962.54
2023-03-27T06:22:22.979Z,962.57
2023-03-27T06:23:23.058Z,962.61
2023-03-27T06:24:23.116Z,962.63
2023-03-27T06:25:23.219Z,962.70
2023-03-27T06:26:23.277Z,962.70
2023-03-27T06:27:23.313Z,962.71
2023-03-27T06:28:23.341Z,962.74
2023-03-27T06:29:23.424Z,962.78
2023-03-27T06:30:23.503Z,962.78
2023-03-27T06:31:23.712Z,962.81
2023-03-27T06:32:24.124Z,962.84
2023-03-27T06:33:23.686Z,962.85
2023-03-27T06:34:23.746Z,962.87
2023-03-27T06:35:24.634Z,962.91
2023-03-27T06:36:24.004Z,962.91
2023-03-27T06:37:23.917Z,962.97
2023-03-27T06:38:23.978Z,962.96
2023-03-27T06:39:24.073Z,962.98
2023-03-27T06:40:24.088Z,962.99
2023-03-27T06:41:24.218Z,963.03
2023-03-27T06:42:24.237Z,963.09
2023-03-27T06:43:24.412Z,963.12
2023-03-27T06:44:24.358Z,963.19
2023-03-27T06:45:24.424Z,963.22
2023-03-27T06:46:27.658Z,963.18
2023-03-27T06:47:24.691Z,963.21
2023-03-27T06:48:24.655Z,963.24
2023-03-27T06:49:24.730Z,963.23
2023-03-27T06:50:24.743Z,963.27
2023-03-27T06:51:24.878Z,963.29
2023-03-27T06:52:24.835Z,963.34
2023-03-27T06:53:27.713Z,963.33
2023-03-27T06:54:24.943Z,963.35
2023-03-27T06:55:25.019Z,963.39
2023-03-27T06:56:25.112Z,963.45
2023-03-27T06:57:25.134Z,963.46
2023-03-27T06:58:25.212Z,963.46
2023-03-27T06:59:25.296Z,963.46
2023-03-27T07:00:25.304Z,963.48
2023-03-27T07:01:25.430Z,963.47
2023-03-27T07:02:25.431Z,963.48
2023-03-27T07:03:25.479Z,963.48
2023-03-27T07:04:25.538Z,963.48
2023-03-27T07:05:25.629Z,963.53
2023-03-27T07:06:25.701Z,963.56
2023-03-27T07:07:25.759Z,963.56
2023-03-27T07:11:19.076Z,963.61
2023-03-27T07:12:19.865Z,963.66
2023-03-27T07:13:19.901Z,963.68
2023-03-27T07:14:19.980Z,963.68
2023-03-27T07:15:20.355Z,963.69
2023-03-27T07:16:20.189Z,963.71
2023-03-27T07:17:20.237Z,963.73
2023-03-27T07:18:20.291Z,963.77
2023-03-27T07:19:20.391Z,963.81
2023-03-27T07:20:20.429Z,963.83
2023-03-27T07:21:20.505Z,963.86
2023-03-27T07:22:21.883Z,963.87
2023-03-27T07:23:20.658Z,963.89
2023-03-27T07:24:20.709Z,963.90
2023-03-27T07:25:21.512Z,963.91
2023-03-27T07:26:20.851Z,963.93
2023-03-27T07:27:20.925Z,963.96
2023-03-27T07:28:20.930Z,963.97
2023-03-27T07:29:20.997Z,964.01
2023-03-27T07:30:21.061Z,964.07
2023-03-27T07:31:35.026Z,964.10
2023-03-27T07:32:34.039Z,964.13
2023-03-27T07:33:21.495Z,964.17
2023-03-27T07:34:21.371Z,964.19
2023-03-27T07:35:21.426Z,964.23
2023-03-27T07:36:21.457Z,964.26
2023-03-27T07:37:21.552Z,964.26
2023-03-27T07:38:21.591Z,964.25
2023-03-27T07:39:21.638Z,964.28
2023-03-27T07:41:21.754Z,964.35
2023-03-27T07:42:21.787Z,964.38
2023-03-27T07:43:21.836Z,964.40
2023-03-27T07:44:21.893Z,964.41
2023-03-27T07:45:21.983Z,964.40
2023-03-27T07:46:22.148Z,964.44
2023-03-27T07:47:22.163Z,964.47
2023-03-27T07:48:22.157Z,964.50
2023-03-27T07:49:39.323Z,964.52
2023-03-27T07:50:22.271Z,964.52
2023-03-27T07:51:22.343Z,964.54
2023-03-27T07:52:22.413Z,964.56
2023-03-27T07:53:33.029Z,964.60
2023-03-27T07:54:22.580Z,964.64
2023-03-27T07:55:22.629Z,964.67
2023-03-27T07:56:22.701Z,964.70
2023-03-27T07:57:22.849Z,964.73
2023-03-27T07:58:23.091Z,964.75
2023-03-27T07:59:22.929Z,964.78
2023-03-27T08:00:23.064Z,964.79
2023-03-27T08:01:23.056Z,964.82
2023-03-27T08:02:23.122Z,964.85
2023-03-27T08:05:11.447Z,964.87
2023-03-27T08:06:12.228Z,964.87
2023-03-27T08:07:12.313Z,964.89
2023-03-27T08:08:12.399Z,964.91
2023-03-27T08:09:12.406Z,964.91
2023-03-27T08:10:12.464Z,964.91
2023-03-27T08:11:23.182Z,964.90
2023-03-27T08:12:12.580Z,964.91
2023-03-27T08:13:12.681Z,964.96
2023-03-27T08:14:12.716Z,964.99
2023-03-27T08:15:12.753Z,964.99
2023-03-27T08:16:12.859Z,965.06
2023-03-27T08:17:16.243Z,965.12
2023-03-27T08:18:13.026Z,965.13
2023-03-27T08:19:13.026Z,965.17
2023-03-27T08:20:13.118Z,965.21
2023-03-27T08:21:13.146Z,965.20
2023-03-27T08:22:13.220Z,965.22
2023-03-27T08:23:13.760Z,965.23
2023-03-27T08:24:13.277Z,965.26
2023-03-27T08:25:13.368Z,965.25
2023-03-27T08:26:13.444Z,965.29
2023-03-27T08:27:13.526Z,965.25
2023-03-27T08:28:13.584Z,965.25
2023-03-27T08:29:13.633Z,965.27
2023-03-27T08:30:15.503Z,965.31
2023-03-27T08:31:13.771Z,965.34
2023-03-27T08:32:13.793Z,965.36
2023-03-27T08:33:13.830Z,965.39
2023-03-27T08:34:13.912Z,965.38
2023-03-27T08:35:14.004Z,965.42
2023-03-27T08:36:14.094Z,965.45
2023-03-27T08:37:14.155Z,965.48
2023-03-27T08:38:25.784Z,965.45
2023-03-27T08:39:14.317Z,965.54
2023-03-27T08:40:14.338Z,965.52
2023-03-27T08:41:14.419Z,965.53
2023-03-27T08:42:14.422Z,965.57
2023-03-27T08:43:14.491Z,965.56
2023-03-27T08:44:14.574Z,965.62
2023-03-27T08:45:14.629Z,965.62
2023-03-27T08:46:14.744Z,965.63
2023-03-27T08:47:14.748Z,965.69
2023-03-27T08:48:14.841Z,965.68
2023-03-27T08:49:14.912Z,965.64
2023-03-27T08:50:14.976Z,965.66
2023-03-27T08:51:15.060Z,965.69
2023-03-27T08:52:15.113Z,965.71
2023-03-27T08:53:15.196Z,965.73
2023-03-27T08:54:15.279Z,965.76
2023-03-27T08:55:15.303Z,965.74
2023-03-27T08:56:15.362Z,965.77
2023-03-27T08:57:15.563Z,965.77
2023-03-27T08:58:15.469Z,965.79
2023-03-27T08:59:17.357Z,965.77
2023-03-27T09:00:15.608Z,965.82
2023-03-27T09:01:15.698Z,965.82
2023-03-27T09:02:15.757Z,965.84
2023-03-27T09:03:15.939Z,965.92
2023-03-27T09:04:15.879Z,965.90
2023-03-27T09:05:15.951Z,965.83
2023-03-27T09:06:16.021Z,965.84
2023-03-27T09:07:16.084Z,965.88
2023-03-27T09:08:16.148Z,965.84
2023-03-27T09:09:16.224Z,965.85
2023-03-27T09:10:16.300Z,965.85
2023-03-27T09:11:16.356Z,965.90
2023-03-27T09:12:16.418Z,965.94
2023-03-27T09:13:16.498Z,965.89
2023-03-27T09:14:16.598Z,965.95
2023-03-27T09:15:16.659Z,965.96
2023-03-27T09:16:16.754Z,965.93
2023-03-27T09:17:16.794Z,965.99
2023-03-27T09:18:16.845Z,966.06
2023-03-27T09:19:16.950Z,966.08
2023-03-27T09:20:16.967Z,966.11
2023-03-27T09:21:17.019Z,966.15
2023-03-27T09:22:17.142Z,966.12
2023-03-27T09:23:19.125Z,966.14
2023-03-27T09:24:17.214Z,966.19
2023-03-27T09:25:17.239Z,966.16
2023-03-27T09:26:17.304Z,966.18
2023-03-27T09:27:17.365Z,966.20
2023-03-27T09:28:17.431Z,966.17
2023-03-27T09:29:20.047Z,966.25
2023-03-27T09:30:17.606Z,966.24
2023-03-27T09:31:17.625Z,966.21
2023-03-27T09:32:17.674Z,966.18
2023-03-27T09:33:18.014Z,966.18
2023-03-27T09:34:17.838Z,966.13
2023-03-27T09:35:17.891Z,966.16
2023-03-27T09:36:17.886Z,966.18
2023-03-27T09:37:18.147Z,966.17
2023-03-27T09:38:18.020Z,966.19
2023-03-27T09:39:18.122Z,966.19
2023-03-27T09:40:18.159Z,966.12
2023-03-27T09:41:18.211Z,966.17
2023-03-27T09:42:18.264Z,966.22
2023-03-27T09:43:18.374Z,966.32
2023-03-27T09:44:18.454Z,966.31
2023-03-27T09:45:18.460Z,966.38
2023-03-27T09:46:18.579Z,966.39
2023-03-27T09:47:18.611Z,966.33
2023-03-27T09:48:18.675Z,966.34
2023-03-27T09:49:18.764Z,966.34
2023-03-27T09:50:18.814Z,966.35
2023-03-27T09:51:18.872Z,966.34
2023-03-27T09:52:18.952Z,966.32
2023-03-27T09:53:19.055Z,966.26
2023-03-27T09:54:19.128Z,966.32
2023-03-27T09:55:19.222Z,966.33
2023-03-27T09:56:19.219Z,966.39
2023-03-27T09:57:19.306Z,966.47
2023-03-27T09:58:19.319Z,966.48
2023-03-27T09:59:19.400Z,966.47
2023-03-27T10:00:19.404Z,966.50
2023-03-27T10:01:19.528Z,966.57
2023-03-27T10:02:19.558Z,966.59
2023-03-27T10:03:19.690Z,966.61
2023-03-27T10:04:19.914Z,966.59
2023-03-27T10:05:19.751Z,966.55
2023-03-27T10:06:19.833Z,966.47
2023-03-27T10:09:13.852Z,966.51
2023-03-27T10:10:15.056Z,966.53
2023-03-27T10:11:14.975Z,966.53
2023-03-27T10:12:15.050Z,966.58
2023-03-27T10:13:15.148Z,966.55
2023-03-27T10:14:15.142Z,966.50
2023-03-27T10:15:15.250Z,966.54
2023-03-27T10:16:15.372Z,966.56
2023-03-27T10:17:15.357Z,966.60
2023-03-27T10:18:15.418Z,966.63
2023-03-27T10:19:15.436Z,966.63
2023-03-27T10:20:15.693Z,966.66
2023-03-27T10:21:15.566Z,966.65
2023-03-27T10:22:15.682Z,966.64
2023-03-27T10:23:15.694Z,966.59
2023-03-27T10:24:15.747Z,966.56
2023-03-27T10:25:15.829Z,966.58
2023-03-27T10:26:15.893Z,966.59
2023-03-27T10:27:15.940Z,966.57
2023-03-27T10:30:09.945Z,966.63
2023-03-27T10:31:11.027Z,966.58
2023-03-27T10:32:11.156Z,966.64
2023-03-27T10:33:11.157Z,966.69
2023-03-27T10:34:11.178Z,966.75
2023-03-27T10:35:11.240Z,966.75
2023-03-27T10:36:11.390Z,966.79
2023-03-27T10:37:11.353Z,966.76
2023-03-27T10:38:11.430Z,966.74
2023-03-27T10:39:11.525Z,966.71
2023-03-27T10:40:11.585Z,966.72
2023-03-27T10:41:11.677Z,966.78
2023-03-27T10:42:11.703Z,966.75
2023-03-27T10:43:12.798Z,966.73
2023-03-27T10:44:11.848Z,966.73
2023-03-27T10:45:11.913Z,966.78
2023-03-27T10:46:12.072Z,966.76
2023-03-27T10:47:12.030Z,966.81
2023-03-27T10:48:12.096Z,966.77
2023-03-27T10:49:12.174Z,966.78
2023-03-27T10:50:12.234Z,966.85
2023-03-27T10:51:12.333Z,966.82
2023-03-27T10:52:12.373Z,966.91
2023-03-27T10:53:12.611Z,966.96
2023-03-27T10:54:12.562Z,966.88
2023-03-27T10:55:12.637Z,966.86
2023-03-27T10:56:12.699Z,966.88
2023-03-27T10:57:12.800Z,966.87
2023-03-27T10:58:12.753Z,966.81
2023-03-27T10:59:12.825Z,966.88
2023-03-27T11:02:08.728Z,966.77
2023-03-27T11:03:07.907Z,966.81
2023-03-27T11:04:07.955Z,966.90
2023-03-27T11:05:07.956Z,966.93
2023-03-27T11:06:08.018Z,966.96
2023-03-27T11:07:08.110Z,966.97
2023-03-27T11:08:08.208Z,966.98
2023-03-27T11:09:08.198Z,967.03
2023-03-27T11:12:02.164Z,967.14
2023-03-27T11:13:03.254Z,967.14
2023-03-27T11:14:03.371Z,967.06
2023-03-27T11:15:03.410Z,967.12
2023-03-27T11:16:03.406Z,967.06
2023-03-27T11:17:03.567Z,967.04
2023-03-27T11:18:03.592Z,966.99
2023-03-27T11:19:04.269Z,967.06
2023-03-27T11:20:10.772Z,967.06
2023-03-27T11:21:04.033Z,967.02
2023-03-27T11:22:03.826Z,967.00
2023-03-27T11:23:03.837Z,967.05
2023-03-27T11:24:04.118Z,967.11
2023-03-27T11:25:04.097Z,967.12
2023-03-27T11:26:04.371Z,967.07
2023-03-27T11:27:04.072Z,967.10
2023-03-27T11:28:04.277Z,967.25
2023-03-27T11:29:04.157Z,967.24
2023-03-27T11:30:04.211Z,967.24
2023-03-27T11:31:11.561Z,967.22
2023-03-27T11:32:04.329Z,967.10
2023-03-27T11:33:04.438Z,967.12
2023-03-27T11:34:04.446Z,967.18
2023-03-27T11:38:48.677Z,967.24
2023-03-27T11:39:49.571Z,967.21
2023-03-27T11:40:49.700Z,967.24
2023-03-27T11:41:50.376Z,967.28
2023-03-27T11:42:49.744Z,967.42
2023-03-27T11:43:49.832Z,967.41
2023-03-27T11:44:50.154Z,967.38
2023-03-27T11:45:50.227Z,967.37
2023-03-27T11:46:50.134Z,967.34
2023-03-27T11:47:56.168Z,967.34
2023-03-27T11:48:50.630Z,967.37
2023-03-27T11:49:51.248Z,967.34
2023-03-27T11:52:44.310Z,967.36
2023-03-27T11:53:45.172Z,967.39
2023-03-27T11:54:46.970Z,967.38
2023-03-27T11:55:45.326Z,967.43
2023-03-27T11:56:45.381Z,967.40
2023-03-27T11:57:45.381Z,967.40
2023-03-27T11:58:45.436Z,967.39
2023-03-27T11:59:45.529Z,967.42
2023-03-27T12:00:45.540Z,967.47
2023-03-27T12:01:45.632Z,967.45
2023-03-27T12:04:39.666Z,967.44
2023-03-27T12:05:40.745Z,967.43
2023-03-27T12:06:40.772Z,967.46
2023-03-27T12:07:46.575Z,967.49
2023-03-27T12:08:40.976Z,967.53
2023-03-27T12:09:40.951Z,967.53
2023-03-27T12:10:41.286Z,967.53
2023-03-27T12:11:41.079Z,967.55
2023-03-27T12:12:41.239Z,967.57
2023-03-27T12:13:42.671Z,967.60
2023-03-27T12:16:35.391Z,967.58
2023-03-27T12:17:36.370Z,967.54
2023-03-27T12:18:36.713Z,967.55
2023-03-27T12:19:38.965Z,967.60
2023-03-27T12:20:43.635Z,967.61
2023-03-27T12:21:36.582Z,967.65
2023-03-27T12:22:36.646Z,967.67
2023-03-27T12:23:36.729Z,967.74
2023-03-27T12:24:36.857Z,967.75
2023-03-27T12:25:37.130Z,967.75
2023-03-27T12:26:36.933Z,967.79
2023-03-27T12:27:37.433Z,967.83
2023-03-27T12:28:38.333Z,967.83
2023-03-27T12:29:37.137Z,967.78
2023-03-27T12:30:37.270Z,967.76
2023-03-27T12:31:37.305Z,967.76
2023-03-27T12:32:40.170Z,967.77
2023-03-27T12:33:40.836Z,967.76
2023-03-27T12:34:39.315Z,967.73
2023-03-27T12:35:37.539Z,967.72
2023-03-27T12:36:37.532Z,967.63
2023-03-27T12:37:37.535Z,967.68
2023-03-27T12:38:37.595Z,967.70
2023-03-27T12:39:37.667Z,967.70
2023-03-27T12:40:37.784Z,967.69
2023-03-27T12:41:37.850Z,967.69
2023-03-27T12:42:43.900Z,967.68
2023-03-27T12:43:37.933Z,967.66
2023-03-27T12:44:38.073Z,967.64
2023-03-27T12:45:47.429Z,967.64
2023-03-27T12:46:38.347Z,967.66
2023-03-27T12:47:38.277Z,967.67
2023-03-27T12:48:38.284Z,967.65
2023-03-27T12:49:46.985Z,967.68
2023-03-27T12:50:38.429Z,967.63
2023-03-27T12:51:38.491Z,967.63
2023-03-27T12:52:38.581Z,967.64
2023-03-27T12:53:38.646Z,967.66
2023-03-27T12:54:38.841Z,967.70
2023-03-27T12:55:38.808Z,967.72
2023-03-27T12:56:38.956Z,967.71
2023-03-27T12:57:39.008Z,967.74
2023-03-27T12:58:38.984Z,967.76
2023-03-27T12:59:39.015Z,967.80
2023-03-27T13:00:39.106Z,967.87
2023-03-27T13:01:51.196Z,967.85
2023-03-27T13:02:39.315Z,967.82
2023-03-27T13:03:39.307Z,967.77
2023-03-27T13:04:39.362Z,967.73
2023-03-27T13:05:39.374Z,967.72
2023-03-27T13:06:39.436Z,967.69
2023-03-27T13:07:39.450Z,967.69
2023-03-27T13:08:39.548Z,967.70
2023-03-27T13:09:39.597Z,967.65
2023-03-27T13:10:39.658Z,967.70
2023-03-27T13:11:39.755Z,967.71
2023-03-27T13:12:39.778Z,967.69
2023-03-27T13:13:39.845Z,967.66
2023-03-27T13:14:39.964Z,967.67
2023-03-27T13:15:40.010Z,967.64
2023-03-27T13:16:40.073Z,967.66
2023-03-27T13:17:40.191Z,967.65
2023-03-27T13:18:40.149Z,967.65
2023-03-27T13:19:40.224Z,967.68
2023-03-27T13:20:40.271Z,967.66
2023-03-27T13:21:40.352Z,967.66
2023-03-27T13:22:40.459Z,967.65
2023-03-27T13:23:40.487Z,967.65
2023-03-27T13:24:40.556Z,967.65
2023-03-27T13:25:40.652Z,967.65
2023-03-27T13:26:40.740Z,967.63
2023-03-27T13:27:40.737Z,967.65
2023-03-27T13:28:40.823Z,967.62
2023-03-27T13:29:40.898Z,967.60
2023-03-27T13:30:40.974Z,967.59
2023-03-27T13:31:41.070Z,967.58
2023-03-27T13:32:41.170Z,967.62
2023-03-27T13:33:41.212Z,967.59
2023-03-27T13:34:41.319Z,967.60
2023-03-27T13:35:41.491Z,967.63
2023-03-27T13:36:41.395Z,967.68
2023-03-27T13:37:41.457Z,967.85
2023-03-27T13:38:41.501Z,967.82
2023-03-27T13:39:41.576Z,967.82
2023-03-27T13:40:41.671Z,967.87
2023-03-27T13:41:41.747Z,967.88
2023-03-27T13:42:41.774Z,967.83
2023-03-27T13:43:41.798Z,967.86
2023-03-27T13:44:41.903Z,967.81
2023-03-27T13:45:41.961Z,967.90
2023-03-27T13:46:42.063Z,967.90
2023-03-27T13:47:42.164Z,967.92
2023-03-27T13:48:42.095Z,967.94
2023-03-27T13:49:42.190Z,967.94
2023-03-27T13:50:42.245Z,967.99
2023-03-27T13:51:42.334Z,968.01
2023-03-27T13:52:42.409Z,968.02
2023-03-27T13:53:42.411Z,968.07
2023-03-27T13:54:42.466Z,968.09
2023-03-27T13:55:42.549Z,968.13
2023-03-27T13:56:42.651Z,968.15
2023-03-27T13:57:42.684Z,968.18
2023-03-27T13:58:42.910Z,968.19
2023-03-27T13:59:42.827Z,968.24
2023-03-27T14:00:42.885Z,968.22
2023-03-27T14:01:43.028Z,968.30
2023-03-27T14:02:43.124Z,968.33
2023-03-27T14:03:43.161Z,968.44
2023-03-27T14:04:43.152Z,968.44
2023-03-27T14:05:43.225Z,968.47
2023-03-27T14:06:43.298Z,968.54
2023-03-27T14:07:43.340Z,968.53
2023-03-27T14:08:43.431Z,968.60
2023-03-27T14:09:43.452Z,968.63
2023-03-27T14:10:43.507Z,968.63
2023-03-27T14:15:25.517Z,968.55
2023-03-27T14:16:26.589Z,968.54
2023-03-27T14:17:26.637Z,968.48
2023-03-27T14:18:26.720Z,968.47
2023-03-27T14:19:26.769Z,968.46
2023-03-27T14:20:26.862Z,968.46
2023-03-27T14:23:20.803Z,968.43
2023-03-27T14:24:21.838Z,968.43
2023-03-27T14:25:21.943Z,968.44
2023-03-27T14:26:22.554Z,968.41
2023-03-27T14:27:22.036Z,968.41
2023-03-27T14:28:22.070Z,968.42
2023-03-27T14:29:22.143Z,968.44
2023-03-27T14:30:22.198Z,968.44
2023-03-27T14:31:22.301Z,968.44
2023-03-27T14:32:22.354Z,968.41
2023-03-27T14:33:22.396Z,968.42
2023-03-27T14:34:22.506Z,968.40
2023-03-27T14:35:22.558Z,968.41
2023-03-27T14:36:22.590Z,968.40
2023-03-27T14:37:22.677Z,968.34
2023-03-27T14:38:22.745Z,968.35
2023-03-27T14:39:22.779Z,968.37
2023-03-27T14:40:22.853Z,968.38
2023-03-27T14:41:22.943Z,968.40
2023-03-27T14:42:23.180Z,968.39
2023-03-27T14:43:23.073Z,968.39
2023-03-27T14:44:23.077Z,968.35
2023-03-27T14:45:23.238Z,968.35
2023-03-27T14:46:23.358Z,968.33
2023-03-27T14:47:23.269Z,968.32
2023-03-27T14:48:23.370Z,968.33
2023-03-27T14:49:24.653Z,968.34
2023-03-27T14:50:23.449Z,968.39
2023-03-27T14:51:23.508Z,968.39
2023-03-27T14:52:23.575Z,968.37
2023-03-27T14:53:23.610Z,968.38
2023-03-27T14:54:23.703Z,968.43
2023-03-27T14:55:23.723Z,968.48
2023-03-27T14:56:24.380Z,968.52
2023-03-27T14:57:23.947Z,968.49
2023-03-27T14:58:23.971Z,968.49
2023-03-27T14:59:23.937Z,968.48
2023-03-27T15:00:24.939Z,968.52
2023-03-27T15:01:24.176Z,968.57
2023-03-27T15:02:24.203Z,968.59
2023-03-27T15:03:24.349Z,968.56
2023-03-27T15:04:24.214Z,968.51
2023-03-27T15:05:24.386Z,968.50
2023-03-27T15:06:24.385Z,968.53
2023-03-27T15:07:24.604Z,968.54
2023-03-27T15:08:24.433Z,968.59
2023-03-27T15:09:24.536Z,968.58
2023-03-27T15:10:24.710Z,968.60
2023-03-27T15:11:24.699Z,968.56
2023-03-27T15:12:24.724Z,968.57
2023-03-27T15:13:25.007Z,968.56
2023-03-27T15:14:24.943Z,968.62
2023-03-27T15:15:24.969Z,968.65
2023-03-27T15:16:25.066Z,968.68
2023-03-27T15:17:25.071Z,968.65
2023-03-27T15:18:25.347Z,968.64
2023-03-27T15:19:25.166Z,968.67
2023-03-27T15:20:25.301Z,968.64
2023-03-27T15:21:25.317Z,968.67
2023-03-27T15:22:25.390Z,968.64
2023-03-27T15:23:25.471Z,968.63
2023-03-27T15:24:25.640Z,968.66
2023-03-27T15:25:25.555Z,968.61
2023-03-27T15:26:25.644Z,968.60
2023-03-27T15:27:25.844Z,968.66
2023-03-27T15:28:25.768Z,968.67
2023-03-27T15:29:25.828Z,968.66
2023-03-27T15:30:25.891Z,968.66
2023-03-27T15:31:26.110Z,968.64
2023-03-27T15:32:26.077Z,968.65
2023-03-27T15:33:26.066Z,968.63
2023-03-27T15:34:26.148Z,968.66
2023-03-27T15:35:26.129Z,968.69
2023-03-27T15:36:26.270Z,968.68
2023-03-27T15:37:30.146Z,968.69
2023-03-27T15:38:29.285Z,968.64
2023-03-27T15:39:30.222Z,968.68
2023-03-27T15:40:29.882Z,968.66
2023-03-27T15:41:31.085Z,968.67
2023-03-27T15:42:26.552Z,968.74
2023-03-27T15:43:26.644Z,968.70
2023-03-27T15:44:26.745Z,968.69
2023-03-27T15:45:26.772Z,968.70
2023-03-27T15:46:26.933Z,968.72
2023-03-27T15:47:27.039Z,968.75
2023-03-27T15:48:26.956Z,968.71
2023-03-27T15:49:27.030Z,968.82
2023-03-27T15:50:27.075Z,968.73
2023-03-27T15:51:27.137Z,968.77
2023-03-27T15:52:27.280Z,968.81
2023-03-27T15:53:27.244Z,968.82
2023-03-27T15:54:27.308Z,968.83
2023-03-27T15:55:27.361Z,968.81
2023-03-27T15:56:27.414Z,968.82
2023-03-27T15:57:27.543Z,968.84
2023-03-27T15:58:27.550Z,968.91
2023-03-27T15:59:27.582Z,968.98
2023-03-27T16:00:28.930Z,969.02
2023-03-27T16:01:27.813Z,969.07
2023-03-27T16:02:27.927Z,969.08
2023-03-27T16:03:27.944Z,969.18
2023-03-27T16:04:27.969Z,969.25
2023-03-27T16:05:28.004Z,969.16
2023-03-27T16:06:28.088Z,969.20
2023-03-27T16:07:28.181Z,969.22
2023-03-27T16:08:28.859Z,969.25
2023-03-27T16:09:28.244Z,969.32
2023-03-27T16:10:28.311Z,969.27
2023-03-27T16:11:28.458Z,969.20
2023-03-27T16:12:28.456Z,969.20
2023-03-27T16:13:28.464Z,969.23
2023-03-27T16:14:28.660Z,969.32
2023-03-27T16:15:28.596Z,969.41
2023-03-27T16:16:28.698Z,969.38
2023-03-27T16:17:28.722Z,969.32
2023-03-27T16:18:28.819Z,969.29
2023-03-27T16:19:28.918Z,969.27
2023-03-27T16:20:28.904Z,969.25
2023-03-27T16:21:28.990Z,969.23
2023-03-27T16:22:29.043Z,969.16
2023-03-27T16:23:29.116Z,969.17
2023-03-27T16:24:29.273Z,969.17
2023-03-27T16:25:29.200Z,969.09
2023-03-27T16:26:29.964Z,969.15
2023-03-27T16:27:29.314Z,969.17
2023-03-27T16:28:29.361Z,969.18
2023-03-27T16:29:29.414Z,969.19
2023-03-27T16:30:29.444Z,969.18
2023-03-27T16:31:29.912Z,969.15
2023-03-27T16:32:29.595Z,969.12
2023-03-27T16:33:29.624Z,969.16
2023-03-27T16:34:29.688Z,969.14
2023-03-27T16:35:29.797Z,969.14
2023-03-27T16:36:29.822Z,969.14
2023-03-27T16:37:30.065Z,969.12
2023-03-27T16:38:30.172Z,969.13
2023-03-27T16:39:30.026Z,969.11
2023-03-27T16:40:30.098Z,969.18
2023-03-27T16:41:30.267Z,969.14
2023-03-27T16:42:30.278Z,969.18
2023-03-27T16:43:30.290Z,969.20
2023-03-27T16:44:30.369Z,969.19
2023-03-27T16:45:30.614Z,969.21
2023-03-27T16:46:30.548Z,969.21
2023-03-27T16:47:30.851Z,969.23
2023-03-27T16:48:30.598Z,969.22
2023-03-27T16:49:30.782Z,969.21
2023-03-27T16:50:30.925Z,969.22
2023-03-27T16:51:31.116Z,969.23
2023-03-27T16:52:32.085Z,969.27
2023-03-27T16:53:31.221Z,969.28
2023-03-27T16:54:31.433Z,969.27
2023-03-27T16:55:31.482Z,969.29
2023-03-27T16:56:31.227Z,969.31
2023-03-27T16:57:31.311Z,969.32
2023-03-27T16:58:31.286Z,969.34
2023-03-27T16:59:31.645Z,969.33
2023-03-27T17:00:31.630Z,969.32
2023-03-27T17:01:31.541Z,969.38
2023-03-27T17:02:34.605Z,969.37
2023-03-27T17:03:36.681Z,969.37
2023-03-27T17:04:31.655Z,969.40
2023-03-27T17:05:32.407Z,969.44
2023-03-27T17:06:32.012Z,969.46
2023-03-27T17:07:31.845Z,969.49
2023-03-27T17:08:31.950Z,969.52
2023-03-27T17:09:31.951Z,969.52
2023-03-27T17:10:32.002Z,969.48
2023-03-27T17:11:33.540Z,969.47
2023-03-27T17:12:32.236Z,969.49
2023-03-27T17:13:32.230Z,969.54
2023-03-27T17:14:32.266Z,969.55
2023-03-27T17:15:34.455Z,969.58
2023-03-27T17:16:37.275Z,969.62
2023-03-27T17:17:37.332Z,969.61
2023-03-27T17:18:34.391Z,969.64
2023-03-27T17:19:32.589Z,969.63
2023-03-27T17:20:32.641Z,969.65
2023-03-27T17:21:32.732Z,969.66
2023-03-27T17:22:32.806Z,969.73
2023-03-27T17:23:32.887Z,969.77
2023-03-27T17:24:38.086Z,969.78
2023-03-27T17:25:32.983Z,969.82
2023-03-27T17:26:33.032Z,969.81
2023-03-27T17:27:33.786Z,969.80
2023-03-27T17:28:33.188Z,969.81
2023-03-27T17:29:33.184Z,969.86
2023-03-27T17:30:40.985Z,969.85
2023-03-27T17:31:33.395Z,969.85
2023-03-27T17:32:33.967Z,969.88
2023-03-27T17:33:33.536Z,969.89
2023-03-27T17:34:33.511Z,969.92
2023-03-27T17:35:33.608Z,969.92
2023-03-27T17:36:42.910Z,969.93
2023-03-27T17:37:33.698Z,969.92
2023-03-27T17:38:33.975Z,969.90
2023-03-27T17:39:33.837Z,969.90
2023-03-27T17:40:34.018Z,969.92
2023-03-27T17:41:33.982Z,969.94
2023-03-27T17:42:34.176Z,969.94
2023-03-27T17:43:34.384Z,969.96
2023-03-27T17:44:34.157Z,969.99
2023-03-27T17:45:34.624Z,970.00
2023-03-27T17:46:34.453Z,970.03
2023-03-27T17:47:34.365Z,970.05
2023-03-27T17:48:34.430Z,970.08
2023-03-27T17:49:34.692Z,970.08
2023-03-27T17:50:34.510Z,970.10
2023-03-27T17:51:34.627Z,970.12
2023-03-27T17:52:34.659Z,970.14
2023-03-27T17:53:34.699Z,970.14
2023-03-27T17:54:34.737Z,970.19
2023-03-27T17:55:34.767Z,970.20
2023-03-27T17:56:34.869Z,970.26
2023-03-27T17:57:34.872Z,970.26
2023-03-27T17:58:34.952Z,970.27
2023-03-27T17:59:34.974Z,970.28